Time;durP1;ratioP1;P1;durP2;ratioP2;P2;SDS_P1;SDS_P2;PMS_P1;PMS_P2;Temp;Humidity;BMP_temperature;BMP_pressure;BME280_temperature;BME280_humidity;BME280_pressure;Samples;Min_cycle;Max_cycle;Signal;HPM_P1;HPM_P2
2021/01/14 09:06:48;;;;;;;74.75;34.20;;;;;;;-1.41;89.89;98510.45;1788680;77;23110;-56
2021/01/14 09:09:17;;;;;;;69.97;35.10;;;;;;;-1.46;89.74;98508.81;1783072;79;21554;-56
2021/01/14 09:11:46;;;;;;;65.55;35.20;;;;;;;-1.42;89.77;98514.46;1735559;80;22327;-54
2021/01/14 09:14:16;;;;;;;70.17;35.20;;;;;;;-1.40;89.62;98499.42;1732827;80;21025;-53
2021/01/14 09:16:46;;;;;;;72.53;35.73;;;;;;;-1.35;89.64;98501.51;1733887;80;20997;-61
2021/01/14 09:19:21;;;;;;;65.47;36.08;;;;;;;-1.29;89.57;98499.18;1734498;80;21016;-56
2021/01/14 09:21:57;;;;;;;73.85;38.70;;;;;;;-1.18;89.35;98503.77;1862670;74;23130;-53
2021/01/14 09:24:25;;;;;;;66.47;33.92;;;;;;;-1.20;89.21;98495.88;1834850;75;21568;-57
2021/01/14 09:26:53;;;;;;;63.13;33.80;;;;;;;-1.16;89.03;98496.69;1801859;77;21529;-54
2021/01/14 09:29:29;;;;;;;73.25;37.85;;;;;;;-1.15;88.87;98493.99;1807195;77;21040;-54
2021/01/14 09:31:58;;;;;;;78.50;38.50;;;;;;;-1.13;88.71;98497.45;1802319;77;20918;-57
2021/01/14 09:34:26;;;;;;;74.62;37.15;;;;;;;-1.13;88.71;98500.10;1804289;77;21067;-53
2021/01/14 09:36:55;;;;;;;77.08;41.25;;;;;;;-1.13;88.61;98503.20;1805606;77;21622;-55
2021/01/14 09:39:23;;;;;;;80.53;41.35;;;;;;;-1.12;88.57;98501.88;1811366;77;21403;-55
2021/01/14 09:41:55;;;;;;;81.37;39.03;;;;;;;-1.12;88.71;98499.22;1762019;77;20969;-54
2021/01/14 09:44:23;;;;;;;;;;;;;;;-1.09;88.87;98504.42;1810393;77;21016;-54
2021/01/14 09:46:50;;;;;;;70.35;36.17;;;;;;;-1.06;88.72;98507.02;1802108;77;20166;-55
2021/01/14 09:49:19;;;;;;;77.42;37.60;;;;;;;-1.01;88.44;98506.91;1796846;77;21112;-54
2021/01/14 09:51:47;;;;;;;72.78;38.33;;;;;;;-1.02;88.22;98501.63;1802495;77;21380;-59
2021/01/14 09:54:17;;;;;;;73.00;39.10;;;;;;;-1.02;88.30;98504.27;1786034;77;21936;-58
2021/01/14 09:56:50;;;;;;;87.50;42.88;;;;;;;-1.00;88.37;98497.19;1799819;77;21222;-55
2021/01/14 09:59:40;;;;;;;82.15;41.65;;;;;;;-1.03;88.37;98498.11;1801206;77;21095;-52
2021/01/14 10:02:29;;;;;;;76.10;36.80;;;;;;;-1.01;88.62;98496.75;1799784;77;21394;-54
2021/01/14 10:04:59;;;;;;;67.00;35.50;;;;;;;-0.98;88.78;98493.59;1799609;77;21208;-57
2021/01/14 10:07:27;;;;;;;65.25;33.13;;;;;;;-0.98;88.75;98493.59;1803127;77;21918;-56
2021/01/14 10:09:57;;;;;;;55.28;30.45;;;;;;;-0.99;88.88;98490.98;1807287;77;21012;-55
2021/01/14 10:12:25;;;;;;;66.95;35.83;;;;;;;-1.03;88.90;98484.89;1803041;77;21005;-52
2021/01/14 10:15:14;;;;;;;63.68;31.75;;;;;;;-1.02;89.14;98483.11;1805213;77;20969;-54
2021/01/14 10:17:42;;;;;;;58.80;30.70;;;;;;;-1.01;89.20;98483.09;1805144;77;22284;-55
2021/01/14 10:20:12;;;;;;;56.37;31.30;;;;;;;-0.95;89.26;98487.37;1803012;77;21193;-58
2021/01/14 10:22:52;;;;;;;58.68;31.50;;;;;;;-0.98;89.24;98483.00;1804089;77;21163;-59
2021/01/14 10:25:21;;;;;;;65.97;35.20;;;;;;;-0.96;89.29;98488.25;1774225;77;21143;-54
2021/01/14 10:28:00;;;;;;;67.42;34.98;;;;;;;-0.93;89.42;98482.89;1802044;77;21081;-55
2021/01/14 10:30:29;;;;;;;57.17;29.95;;;;;;;-0.95;89.29;98491.34;1800930;77;21204;-54
2021/01/14 10:33:05;;;;;;;59.48;30.25;;;;;;;-0.93;89.47;98486.86;1804393;77;21223;-54
2021/01/14 10:35:35;;;;;;;56.98;28.42;;;;;;;-0.92;89.35;98483.30;1801546;77;21172;-54
2021/01/14 10:38:13;;;;;;;56.02;29.35;;;;;;;-0.91;89.46;98475.77;1799175;77;21561;-53
2021/01/14 10:40:43;;;;;;;65.75;35.05;;;;;;;-0.90;89.38;98478.86;1800275;77;21568;-54
2021/01/14 10:43:16;;;;;;;67.65;34.23;;;;;;;-0.85;89.54;98478.30;1796299;77;21579;-54
2021/01/14 10:45:44;;;;;;;66.57;34.88;;;;;;;-0.83;89.28;98469.40;1800452;77;21111;-53
2021/01/14 10:48:16;;;;;;;65.85;34.53;;;;;;;-0.89;89.32;98464.27;1797918;77;21258;-49
2021/01/14 10:50:56;;;;;;;68.50;33.60;;;;;;;-0.96;89.47;98464.44;1799538;77;21092;-55
2021/01/14 10:53:31;;;;;;;61.88;32.65;;;;;;;-1.01;89.59;98465.90;1798333;77;20976;-51
2021/01/14 10:56:08;;;;;;;70.03;35.40;;;;;;;-1.00;89.80;98462.80;1798515;77;22251;-49
2021/01/14 10:58:38;;;;;;;71.33;35.03;;;;;;;-1.01;89.85;98468.97;1801298;77;21583;-50
2021/01/14 11:01:19;;;;;;;66.97;35.28;;;;;;;-1.04;89.82;98462.45;1801089;77;21446;-48
2021/01/14 11:03:51;;;;;;;68.17;34.33;;;;;;;-1.04;89.96;98457.16;1776822;77;28071;-48
2021/01/14 11:06:32;;;;;;;64.85;35.58;;;;;;;-1.03;90.08;98465.50;1796946;77;22153;-52
2021/01/14 11:09:03;;;;;;;61.88;34.35;;;;;;;-1.01;90.17;98461.03;1798200;77;21969;-49
2021/01/14 11:11:31;;;;;;;64.05;35.58;;;;;;;-0.98;90.24;98458.33;1797753;77;21180;-52
2021/01/14 11:14:00;;;;;;;67.15;34.67;;;;;;;-0.97;90.11;98454.77;1798138;77;21236;-52
2021/01/14 11:16:28;;;;;;;65.17;35.33;;;;;;;-0.93;90.19;98456.44;1797322;77;21131;-50
2021/01/14 11:18:57;;;;;;;63.10;34.55;;;;;;;-0.93;90.15;98449.36;1796586;77;21059;-49
2021/01/14 11:21:31;;;;;;;66.97;34.25;;;;;;;-0.94;90.17;98442.80;1798041;77;22078;-49
2021/01/14 11:24:00;;;;;;;60.17;31.52;;;;;;;-0.92;90.17;98446.27;1800953;77;21158;-51
2021/01/14 11:26:28;;;;;;;72.17;36.60;;;;;;;-0.93;89.99;98446.72;1803067;77;20992;-50
2021/01/14 11:28:57;;;;;;;67.55;37.42;;;;;;;-0.94;89.95;98437.50;1802420;77;21116;-51
2021/01/14 11:31:25;;;;;;;84.72;40.80;;;;;;;-0.93;90.13;98443.20;1795713;77;21565;-50
2021/01/14 11:33:53;;;;;;;72.58;38.38;;;;;;;-0.92;90.16;98437.00;1805345;77;21205;-50
2021/01/14 11:36:22;;;;;;;76.77;36.85;;;;;;;-0.92;90.20;98437.00;1801622;77;21167;-50
2021/01/14 11:38:51;;;;;;;78.67;40.25;;;;;;;-0.91;90.21;98436.09;1803080;77;21612;-50
2021/01/14 11:41:22;;;;;;;66.82;35.20;;;;;;;-0.95;90.04;98442.39;1805571;77;21202;-50
2021/01/14 11:43:50;;;;;;;60.20;31.57;;;;;;;-0.98;90.01;98438.02;1803621;77;21001;-49
2021/01/14 11:48:55;;;;;;;65.62;40.92;;;;;;;-0.95;90.20;98439.74;1760152;77;27920;-48
2021/01/14 11:51:23;;;;;;;68.72;38.05;;;;;;;-0.99;90.10;98435.43;1728604;79;21067;-56
2021/01/14 11:53:51;;;;;;;76.85;39.03;;;;;;;-1.01;90.03;98439.87;1722058;80;21436;-51
2021/01/14 11:56:20;;;;;;;89.32;42.90;;;;;;;-1.01;90.17;98445.16;1723207;80;21068;-49
2021/01/14 11:58:48;;;;;;;84.67;41.10;;;;;;;-1.02;90.22;98438.13;1724317;80;21116;-52
2021/01/14 12:01:16;;;;;;;96.47;43.83;;;;;;;-1.03;90.39;98436.41;1721644;80;20966;-50
2021/01/14 12:03:44;;;;;;;90.12;39.73;;;;;;;-1.06;90.51;98434.27;1721783;80;20961;-49
2021/01/14 12:06:12;;;;;;;77.03;36.50;;;;;;;-1.07;90.47;98434.27;1722061;80;22092;-49
2021/01/14 12:08:40;;;;;;;68.65;36.13;;;;;;;-1.06;90.47;98440.01;1722411;80;21041;-49
2021/01/14 12:11:09;;;;;;;72.65;35.68;;;;;;;-1.07;90.49;98439.11;1719425;80;21179;-49
2021/01/14 12:13:37;;;;;;;61.42;33.23;;;;;;;-1.04;90.55;98442.61;1718688;80;21168;-48
2021/01/14 12:16:05;;;;;;;67.12;34.13;;;;;;;-1.01;90.60;98438.13;1720953;80;21184;-50
2021/01/14 12:18:34;;;;;;;72.82;37.05;;;;;;;-0.99;90.63;98435.43;1725074;80;21187;-54
2021/01/14 12:21:02;;;;;;;68.97;39.15;;;;;;;-0.98;90.56;98439.80;1721404;80;21155;-53
2021/01/14 12:23:30;;;;;;;69.53;36.40;;;;;;;-1.00;90.68;98431.92;1724239;80;21569;-48
2021/01/14 12:25:59;;;;;;;71.42;36.65;;;;;;;-0.99;90.86;98442.91;1722061;80;21164;-51
2021/01/14 12:28:26;;;;;;;72.72;38.50;;;;;;;-0.99;90.93;98435.43;1725955;80;21092;-51
2021/01/14 12:30:54;;;;;;;80.67;40.65;;;;;;;-0.98;91.03;98437.16;1723211;80;22547;-49
2021/01/14 12:33:22;;;;;;;79.72;41.13;;;;;;;-0.99;91.13;98438.08;1722680;80;22069;-52
2021/01/14 12:35:51;;;;;;;80.62;40.80;;;;;;;-1.00;91.26;98436.34;1723853;80;21014;-50
2021/01/14 12:38:19;;;;;;;77.08;40.23;;;;;;;-1.01;91.33;98439.87;1722259;80;21164;-49
2021/01/14 12:40:47;;;;;;;72.45;38.78;;;;;;;-1.02;91.36;98439.46;1725562;80;21119;-51
2021/01/14 12:43:15;;;;;;;75.28;37.23;;;;;;;-1.06;91.35;98440.88;1725833;80;21571;-50
2021/01/14 12:45:43;;;;;;;72.27;38.15;;;;;;;-1.06;91.49;98438.23;1726215;80;21632;-50
2021/01/14 12:48:11;;;;;;;80.80;41.90;;;;;;;-1.04;91.54;98437.31;1717919;80;21608;-54
2021/01/14 12:50:42;;;;;;;82.78;42.93;;;;;;;-1.04;91.63;98442.16;1716333;81;21181;-50
2021/01/14 12:53:10;;;;;;;80.92;41.68;;;;;;;-1.00;91.73;98446.92;1719858;80;20975;-51
2021/01/14 12:55:38;;;;;;;77.72;39.35;;;;;;;-0.95;91.71;98449.00;1714601;81;21371;-49
2021/01/14 12:58:06;;;;;;;84.10;39.78;;;;;;;-0.92;91.61;98444.94;1713218;80;21124;-52
2021/01/14 13:00:34;;;;;;;90.40;43.98;;;;;;;-0.94;91.56;98450.28;1713640;81;21133;-49
2021/01/14 13:03:02;;;;;;;100.75;46.53;;;;;;;-0.98;91.65;98450.39;1711414;80;21208;-50
2021/01/14 13:05:30;;;;;;;83.42;41.37;;;;;;;-0.98;91.81;98454.36;1715423;81;21192;-49
2021/01/14 13:08:00;;;;;;;85.80;40.90;;;;;;;-0.95;91.95;98447.68;1715303;81;21600;-51
2021/01/14 13:10:28;;;;;;;71.22;37.45;;;;;;;-0.93;92.01;98448.50;1710328;81;21249;-50
2021/01/14 13:12:57;;;;;;;77.17;37.78;;;;;;;-0.93;92.01;98452.01;1709536;81;21161;-50
2021/01/14 13:15:25;;;;;;;68.60;36.68;;;;;;;-0.89;92.10;98450.17;1712205;81;20998;-50
2021/01/14 13:17:55;;;;;;;72.25;38.63;;;;;;;-0.87;91.77;98452.31;1711347;81;20990;-51
2021/01/14 13:20:25;;;;;;;66.15;35.92;;;;;;;-0.91;91.67;98454.61;1711059;81;21161;-49
2021/01/14 13:22:53;;;;;;;62.65;35.65;;;;;;;-0.91;91.72;98451.96;1711673;81;21632;-56
2021/01/14 13:25:21;;;;;;;60.88;33.23;;;;;;;-0.92;91.74;98446.27;1711658;81;21140;-55
2021/01/14 13:27:49;;;;;;;61.20;35.08;;;;;;;-0.92;91.74;98448.91;1715079;81;21130;-55
2021/01/14 13:30:18;;;;;;;61.40;33.95;;;;;;;-0.94;91.81;98445.44;1712668;81;21188;-54
2021/01/14 13:32:46;;;;;;;64.58;34.23;;;;;;;-0.96;91.94;98450.78;1715524;81;21419;-55
2021/01/14 13:35:14;;;;;;;65.12;34.45;;;;;;;-0.98;91.83;98453.03;1713426;81;21565;-50
2021/01/14 13:37:42;;;;;;;63.90;34.70;;;;;;;-0.97;91.96;98452.12;1713031;81;21431;-53
2021/01/14 13:40:12;;;;;;;62.53;32.55;;;;;;;-0.98;92.01;98447.73;1712814;81;21242;-51
2021/01/14 13:42:40;;;;;;;65.40;33.40;;;;;;;-0.98;91.96;98451.71;1716074;81;21034;-52
2021/01/14 13:45:08;;;;;;;60.88;33.25;;;;;;;-1.00;91.99;98457.50;1711891;81;21389;-52
2021/01/14 13:47:36;;;;;;;62.35;35.90;;;;;;;-1.01;92.08;98465.00;1713685;81;22058;-55
2021/01/14 13:50:06;;;;;;;64.90;36.03;;;;;;;-1.05;92.13;98458.94;1713139;80;21141;-57
2021/01/14 13:52:34;;;;;;;68.02;34.43;;;;;;;-1.06;92.24;98461.17;1714245;81;21105;-55
2021/01/14 13:58:32;;;;;;;70.20;33.40;;;;;;;-1.05;92.34;98458.94;1788959;79;20899;-51
2021/01/14 14:01:01;;;;;;;63.87;33.88;;;;;;;-1.15;92.41;98466.22;1753296;80;21029;-48
2021/01/14 14:03:29;;;;;;;58.13;32.17;;;;;;;-1.16;92.56;98470.23;1711166;82;22297;-51
2021/01/14 14:05:57;;;;;;;57.40;30.62;;;;;;;-1.19;92.65;98465.88;1702215;83;21093;-52
2021/01/14 14:08:25;;;;;;;54.05;29.92;;;;;;;-1.16;92.79;98465.81;1701318;83;21606;-50
2021/01/14 14:10:53;;;;;;;52.23;32.15;;;;;;;-1.14;92.63;98471.92;1703037;83;21608;-52
2021/01/14 14:13:21;;;;;;;53.58;31.80;;;;;;;-1.20;92.52;98466.78;1701260;83;21631;-52
2021/01/14 14:15:50;;;;;;;54.88;31.20;;;;;;;-1.21;92.77;98469.02;1703499;83;21381;-48
2021/01/14 14:18:18;;;;;;;53.65;30.55;;;;;;;-1.23;92.69;98470.80;1740278;81;21010;-50
2021/01/14 14:20:45;;;;;;;49.10;28.60;;;;;;;-1.23;92.59;98474.77;1741344;82;21006;-50
2021/01/14 14:23:14;;;;;;;48.15;27.07;;;;;;;-1.22;92.45;98483.15;1741140;81;21349;-49
2021/01/14 14:25:44;;;;;;;46.33;26.50;;;;;;;-1.27;92.17;98483.71;1740625;81;21280;-48
2021/01/14 14:28:12;;;;;;;47.23;26.02;;;;;;;-1.30;92.27;98481.12;1738847;81;21484;-49
2021/01/14 14:30:41;;;;;;;52.15;29.57;;;;;;;-1.32;92.08;98485.59;1741199;82;21553;-47
2021/01/14 14:33:09;;;;;;;51.48;27.90;;;;;;;-1.40;92.06;98490.16;1741612;81;21022;-54
2021/01/14 14:35:39;;;;;;;55.83;30.30;;;;;;;-1.42;92.02;98488.02;1741796;82;21752;-52
2021/01/14 14:38:07;;;;;;;47.88;27.60;;;;;;;-1.47;92.24;98478.00;1715704;82;21105;-51
2021/01/14 14:40:36;;;;;;;48.75;28.98;;;;;;;-1.46;92.35;98486.34;1738491;82;21392;-48
2021/01/14 14:43:03;;;;;;;48.85;28.65;;;;;;;-1.49;92.37;98482.43;1737505;82;21061;-50
2021/01/14 14:45:32;;;;;;;55.92;29.50;;;;;;;-1.51;92.52;98484.25;1740699;81;21156;-50
2021/01/14 14:48:00;;;;;;;58.52;31.50;;;;;;;-1.56;92.57;98488.77;1740184;81;21002;-50
2021/01/14 14:50:28;;;;;;;54.85;29.52;;;;;;;-1.65;92.72;98490.73;1738334;82;20978;-48
2021/01/14 14:52:56;;;;;;;61.63;29.77;;;;;;;-1.68;92.95;98488.14;1740728;82;21203;-48
2021/01/14 14:55:28;;;;;;;48.28;26.65;;;;;;;-1.69;92.71;98490.82;1740723;82;21648;-48
2021/01/14 14:58:04;;;;;;;57.90;27.02;;;;;;;-1.64;92.77;98492.46;1822650;76;22751;-48
2021/01/14 15:00:33;;;;;;;44.90;26.93;;;;;;;-1.71;92.43;98488.19;1785026;77;21682;-51
2021/01/14 15:03:01;;;;;;;44.60;23.57;;;;;;;-1.79;92.36;98491.92;1760875;79;21204;-51
2021/01/14 15:05:29;;;;;;;49.27;27.37;;;;;;;-1.85;92.71;98490.27;1756109;79;20981;-49
2021/01/14 15:07:58;;;;;;;49.33;25.43;;;;;;;-1.91;92.72;98493.05;1764182;78;20950;-50
2021/01/14 15:10:27;;;;;;;49.63;27.55;;;;;;;-1.98;93.18;98499.34;1764729;79;21112;-52
2021/01/14 15:12:56;;;;;;;46.80;26.15;;;;;;;-2.07;93.40;98491.62;1761381;78;20941;-50
2021/01/14 15:15:24;;;;;;;48.00;27.45;;;;;;;-2.11;93.85;98496.95;1760497;79;21552;-51
2021/01/14 15:17:52;;;;;;;40.45;23.38;;;;;;;-2.13;94.04;98501.41;1758378;79;21552;-51
2021/01/14 15:20:20;;;;;;;43.98;23.22;;;;;;;-2.14;94.03;98497.45;1754736;79;21327;-49
2021/01/14 15:22:48;;;;;;;61.40;34.00;;;;;;;-2.16;93.89;98498.81;1756769;79;21139;-49
2021/01/14 15:25:16;;;;;;;58.20;31.55;;;;;;;-2.17;93.96;98498.39;1755637;78;21467;-50
2021/01/14 15:27:44;;;;;;;55.58;28.98;;;;;;;-2.12;94.17;98504.91;1754031;79;21199;-49
2021/01/14 15:30:13;;;;;;;52.70;26.45;;;;;;;-2.18;94.10;98501.08;1755015;79;21147;-54
2021/01/14 15:32:45;;;;;;;45.15;23.52;;;;;;;-2.22;94.05;98498.06;1761067;79;21536;-48
2021/01/14 15:35:21;;;;;;;46.08;24.45;;;;;;;-2.29;93.75;98504.34;1763637;78;21177;-54
2021/01/14 15:37:49;;;;;;;54.77;27.87;;;;;;;-2.35;94.00;98507.96;1762911;78;21214;-53
2021/01/14 15:40:20;;;;;;;50.88;27.62;;;;;;;-2.42;93.99;98506.34;1762563;78;21230;-56
2021/01/14 15:42:48;;;;;;;47.40;25.85;;;;;;;-2.41;94.30;98513.36;1759954;78;21187;-54
2021/01/14 15:45:17;;;;;;;48.78;25.62;;;;;;;-2.33;94.33;98511.47;1760010;79;21088;-56
2021/01/14 15:47:45;;;;;;;45.17;23.98;;;;;;;-2.35;94.01;98522.48;1762850;78;21617;-48
2021/01/14 15:50:14;;;;;;;47.20;26.33;;;;;;;-2.37;94.02;98528.25;1763142;78;21466;-52
2021/01/14 15:52:44;;;;;;;47.58;28.05;;;;;;;-2.40;94.03;98530.94;1761395;79;21548;-48
2021/01/14 15:55:13;;;;;;;46.88;27.07;;;;;;;-2.46;93.89;98526.64;1732615;80;21571;-48
2021/01/14 15:57:44;;;;;;;43.08;24.32;;;;;;;-2.45;94.12;98528.83;1768702;78;21016;-46
2021/01/14 16:00:15;;;;;;;43.05;23.40;;;;;;;-2.45;93.97;98528.41;1772886;78;22073;-52
2021/01/14 16:02:44;;;;;;;48.35;24.85;;;;;;;-2.49;93.95;98528.48;1778637;78;21469;-51
2021/01/14 16:05:12;;;;;;;44.67;24.57;;;;;;;-2.55;93.90;98532.10;1772265;78;21201;-48
2021/01/14 16:07:43;;;;;;;45.67;24.25;;;;;;;-2.64;93.96;98535.76;1771156;78;21570;-48
2021/01/14 16:10:12;;;;;;;45.20;24.12;;;;;;;-2.68;94.22;98532.74;1746071;79;21008;-51
2021/01/14 16:12:40;;;;;;;44.58;22.60;;;;;;;-2.68;94.29;98528.78;1771265;78;21028;-52
2021/01/14 16:15:09;;;;;;;45.63;24.50;;;;;;;-2.68;94.28;98531.42;1771555;78;21560;-52
2021/01/14 16:17:37;;;;;;;42.80;24.57;;;;;;;-2.67;94.35;98533.16;1773311;78;21194;-50
2021/01/14 16:20:07;;;;;;;47.80;26.20;;;;;;;-2.67;94.32;98538.44;1772787;78;21189;-47
2021/01/14 16:22:35;;;;;;;41.33;22.10;;;;;;;-2.61;94.47;98533.95;1771949;78;21154;-48
2021/01/14 16:25:06;;;;;;;40.65;22.65;;;;;;;-2.61;94.12;98536.59;1772852;78;20933;-53
2021/01/14 16:27:34;;;;;;;37.58;19.57;;;;;;;-2.64;94.10;98535.76;1772504;78;21549;-47
2021/01/14 16:30:03;;;;;;;37.60;20.97;;;;;;;-2.62;93.95;98537.49;1773059;78;22054;-51
2021/01/14 16:32:31;;;;;;;38.17;19.20;;;;;;;-2.69;94.02;98534.09;1770608;78;21170;-51
2021/01/14 16:34:59;;;;;;;34.23;18.67;;;;;;;-2.78;93.83;98535.11;1770674;78;21028;-51
2021/01/14 16:37:30;;;;;;;39.15;21.37;;;;;;;-2.84;93.82;98544.45;1771716;78;21150;-53
2021/01/14 16:39:58;;;;;;;37.23;19.30;;;;;;;-2.88;93.82;98543.20;1732541;80;21654;-52
2021/01/14 16:42:26;;;;;;;34.38;19.25;;;;;;;-2.96;93.74;98543.33;1755162;79;21377;-53
2021/01/14 16:44:54;;;;;;;36.73;19.30;;;;;;;-3.01;93.85;98537.25;1752980;79;20993;-52
2021/01/14 16:47:23;;;;;;;38.58;18.55;;;;;;;-3.04;93.81;98542.56;1752429;79;21139;-52
2021/01/14 16:49:51;;;;;;;34.27;18.87;;;;;;;-3.12;93.54;98541.83;1755708;79;21180;-53
2021/01/14 16:52:19;;;;;;;34.90;17.82;;;;;;;-3.21;93.60;98538.41;1754759;79;21108;-51
2021/01/14 16:54:47;;;;;;;36.73;19.02;;;;;;;-3.25;93.69;98542.02;1751245;79;21375;-52
2021/01/14 16:57:15;;;;;;;37.88;19.12;;;;;;;-3.26;93.87;98540.24;1753603;79;21155;-52
2021/01/14 16:59:44;;;;;;;32.23;18.27;;;;;;;-3.27;94.00;98544.23;1752790;79;21160;-52
2021/01/14 17:02:16;;;;;;;34.18;18.32;;;;;;;-3.22;94.16;98547.22;1754765;79;21128;-52
2021/01/14 17:04:43;;;;;;;39.08;20.40;;;;;;;-3.19;93.79;98547.19;1754749;79;20975;-51
2021/01/14 17:07:13;;;;;;;34.90;18.90;;;;;;;-3.21;93.71;98551.59;1756149;79;21336;-58
2021/01/14 17:09:41;;;;;;;34.98;18.02;;;;;;;-3.21;93.90;98547.64;1753833;79;21052;-57
2021/01/14 17:12:10;;;;;;;34.78;17.90;;;;;;;-3.24;93.55;98553.42;1754894;79;20946;-57
2021/01/14 17:14:38;;;;;;;30.55;17.12;;;;;;;-3.26;93.47;98556.06;1756500;79;21237;-58
2021/01/14 17:17:06;;;;;;;31.73;17.40;;;;;;;-3.25;93.42;98549.92;1755856;79;21691;-56
2021/01/14 17:19:35;;;;;;;31.42;17.12;;;;;;;-3.24;93.04;98553.42;1752973;79;21205;-59
2021/01/14 17:22:04;;;;;;;30.50;16.50;;;;;;;-3.29;92.84;98549.98;1756886;79;21104;-53
2021/01/14 17:24:33;;;;;;;33.33;16.55;;;;;;;-3.31;92.71;98549.11;1752315;80;21508;-54
2021/01/14 17:27:03;;;;;;;32.48;17.35;;;;;;;-3.34;92.74;98550.05;1752241;79;21668;-58
2021/01/14 17:29:32;;;;;;;42.50;20.12;;;;;;;-3.32;92.75;98553.52;1734430;80;21107;-55
2021/01/14 17:32:01;;;;;;;30.80;16.90;;;;;;;-3.34;92.63;98557.95;1757072;79;21369;-57
2021/01/14 17:34:31;;;;;;;35.30;20.12;;;;;;;-3.35;92.70;98554.89;1757503;79;21207;-51
2021/01/14 17:37:00;;;;;;;37.85;20.02;;;;;;;-3.41;92.44;98562.86;1758796;79;21116;-54
2021/01/14 17:39:30;;;;;;;34.60;17.73;;;;;;;-3.38;92.33;98554.92;1759093;79;21080;-47
2021/01/14 17:41:58;;;;;;;36.95;18.98;;;;;;;-3.41;92.04;98561.54;1759496;79;21166;-57
2021/01/14 17:44:27;;;;;;;42.53;20.43;;;;;;;-3.49;91.57;98563.42;1759766;79;21146;-51
2021/01/14 17:46:56;;;;;;;42.00;21.25;;;;;;;-3.52;91.79;98571.36;1756135;79;21195;-54
2021/01/14 17:49:25;;;;;;;41.77;21.65;;;;;;;-3.57;91.68;98566.59;1756417;79;21192;-57
2021/01/14 17:51:54;;;;;;;37.20;19.07;;;;;;;-3.58;91.96;98559.13;1758381;79;21526;-50
2021/01/14 17:54:23;;;;;;;38.15;18.65;;;;;;;-3.59;91.71;98564.44;1756649;79;21135;-47
2021/01/14 17:56:52;;;;;;;41.77;21.73;;;;;;;-3.66;91.47;98562.77;1756143;79;21957;-44
2021/01/14 17:59:22;;;;;;;42.10;20.77;;;;;;;-3.69;91.54;98576.84;1753894;79;21225;-50
2021/01/14 18:01:51;;;;;;;34.75;19.05;;;;;;;-3.72;91.57;98572.50;1758005;79;21585;-54
2021/01/14 18:04:20;;;;;;;37.55;20.97;;;;;;;-3.76;91.74;98570.78;1752923;79;21231;-53
2021/01/14 18:06:49;;;;;;;38.33;19.77;;;;;;;-3.77;91.84;98567.73;1756705;79;21180;-47
2021/01/14 18:09:17;;;;;;;40.52;19.27;;;;;;;-3.79;92.05;98574.76;1753003;79;21717;-54
2021/01/14 18:11:46;;;;;;;38.70;21.62;;;;;;;-3.80;92.29;98570.39;1749013;79;21426;-48
2021/01/14 18:14:15;;;;;;;40.67;20.23;;;;;;;-3.79;92.38;98572.57;1752204;80;21224;-52
2021/01/14 18:16:44;;;;;;;38.67;20.43;;;;;;;-3.83;92.39;98579.66;1753834;79;21170;-49
2021/01/14 18:19:13;;;;;;;35.68;19.55;;;;;;;-3.82;92.46;98571.31;1752438;79;21554;-52
2021/01/14 18:21:45;;;;;;;44.13;21.62;;;;;;;-3.78;92.54;98573.89;1752288;79;21998;-53
2021/01/14 18:24:14;;;;;;;39.65;20.72;;;;;;;-3.77;92.19;98574.31;1750531;79;21159;-54
2021/01/14 18:26:42;;;;;;;39.80;20.35;;;;;;;-3.80;91.40;98575.66;1752097;79;21657;-53
2021/01/14 18:29:10;;;;;;;43.17;22.55;;;;;;;-3.87;91.32;98583.20;1752239;80;21053;-54
2021/01/14 18:31:38;;;;;;;42.27;21.12;;;;;;;-3.94;91.41;98584.18;1749733;80;21037;-52
2021/01/14 18:34:07;;;;;;;35.10;19.35;;;;;;;-3.98;91.31;98591.23;1755569;79;22141;-56
2021/01/14 18:36:36;;;;;;;34.80;17.90;;;;;;;-4.05;91.10;98591.29;1753417;79;21163;-57
2021/01/14 18:39:04;;;;;;;44.20;20.88;;;;;;;-4.13;90.93;98593.15;1752674;79;20989;-56
2021/01/14 18:41:33;;;;;;;40.92;17.95;;;;;;;-4.18;91.02;98584.42;1751262;79;21561;-56
2021/01/14 18:44:03;;;;;;;41.55;19.05;;;;;;;-4.18;91.13;98593.19;1751261;79;21113;-53
2021/01/14 18:46:31;;;;;;;40.43;19.60;;;;;;;-4.19;91.05;98599.80;1749201;79;21147;-57
2021/01/14 18:48:59;;;;;;;43.48;20.57;;;;;;;-4.32;90.63;98597.26;1753166;79;21581;-55
2021/01/14 18:51:27;;;;;;;37.15;18.90;;;;;;;-4.37;90.90;98591.61;1751301;80;21247;-54
2021/01/14 18:53:56;;;;;;;42.40;20.10;;;;;;;-4.35;91.17;98601.25;1751192;80;21261;-55
2021/01/14 18:56:24;;;;;;;36.35;16.82;;;;;;;-4.33;90.95;98603.86;1752739;80;21552;-55
2021/01/14 18:58:52;;;;;;;37.33;18.00;;;;;;;-4.33;90.54;98599.47;1752247;79;21361;-53
2021/01/14 19:01:21;;;;;;;34.65;16.77;;;;;;;-4.38;90.09;98613.11;1755003;79;21730;-53
2021/01/14 19:03:50;;;;;;;32.83;16.65;;;;;;;-4.41;89.98;98609.20;1755176;79;21529;-54
2021/01/14 19:06:19;;;;;;;33.53;16.65;;;;;;;-4.37;90.19;98608.27;1750628;79;21147;-53
2021/01/14 19:08:48;;;;;;;35.45;18.20;;;;;;;-4.42;89.69;98616.67;1755858;79;21136;-55
2021/01/14 19:11:20;;;;;;;40.50;19.42;;;;;;;-4.50;89.65;98614.54;1754464;79;21215;-54
2021/01/14 19:13:48;;;;;;;35.83;18.98;;;;;;;-4.57;89.89;98614.17;1754961;79;21569;-53
2021/01/14 19:16:16;;;;;;;37.55;16.77;;;;;;;-4.61;90.07;98619.02;1752190;79;21524;-56
2021/01/14 19:18:46;;;;;;;43.70;20.27;;;;;;;-4.60;90.28;98620.76;1751289;79;21172;-54
2021/01/14 19:21:22;;;;;;;34.40;17.70;;;;;;;-4.64;90.18;98625.16;1755736;79;21116;-49
2021/01/14 19:23:50;;;;;;;34.78;18.90;;;;;;;-4.67;90.39;98626.96;1754268;79;21713;-47
2021/01/14 19:26:28;;;;;;;41.33;20.12;;;;;;;-4.69;90.69;98624.77;1754387;79;21164;-56
2021/01/14 19:28:57;;;;;;;33.90;19.15;;;;;;;-4.67;90.94;98633.09;1758781;79;21196;-56
2021/01/14 19:31:30;;;;;;;38.65;19.00;;;;;;;-4.63;90.89;98627.38;1754740;79;21638;-51
2021/01/14 19:34:00;;;;;;;34.23;16.37;;;;;;;-4.58;91.03;98629.50;1756071;79;21766;-49
2021/01/14 19:36:29;;;;;;;35.23;17.35;;;;;;;-4.49;91.34;98632.06;1755971;79;21371;-53
2021/01/14 19:38:58;;;;;;;30.85;15.20;;;;;;;-4.40;91.23;98634.63;1752025;79;21238;-52
2021/01/14 19:41:31;;;;;;;36.95;17.92;;;;;;;-4.36;90.92;98638.98;1752997;79;21706;-50
2021/01/14 19:44:01;;;;;;;30.72;17.17;;;;;;;-4.38;90.68;98631.52;1756159;79;22000;-47
2021/01/14 19:46:37;;;;;;;27.27;15.35;;;;;;;-4.37;90.27;98638.53;1757161;79;21148;-47
2021/01/14 19:49:08;;;;;;;30.08;14.90;;;;;;;-4.47;89.83;98640.83;1754315;79;21940;-47
2021/01/14 19:51:41;;;;;;;26.73;15.50;;;;;;;-4.55;89.76;98646.58;1708656;81;21193;-53
2021/01/14 19:54:10;;;;;;;32.10;16.65;;;;;;;-4.60;90.02;98649.69;1728746;80;21143;-47
2021/01/14 19:56:38;;;;;;;33.85;16.23;;;;;;;-4.56;90.25;98643.53;1735265;80;21599;-46
2021/01/14 19:59:06;;;;;;;31.35;16.27;;;;;;;-4.56;90.13;98646.16;1718851;81;21166;-47
2021/01/14 20:04:11;;;;;;;37.53;19.73;;;;;;;-4.64;89.67;98640.06;1839976;74;28435;-46
2021/01/14 20:06:39;;;;;;;27.48;14.73;;;;;;;-4.75;89.76;98644.96;1792876;77;21506;-46
2021/01/14 20:09:11;;;;;;;26.85;14.85;;;;;;;-4.75;89.80;98648.91;1791223;77;22934;-48
2021/01/14 20:11:38;;;;;;;26.17;14.25;;;;;;;-4.78;89.64;98646.31;1789748;77;22048;-49
2021/01/14 20:14:06;;;;;;;24.02;13.20;;;;;;;-4.79;89.56;98655.09;1789060;77;20962;-48
2021/01/14 20:16:34;;;;;;;25.20;13.62;;;;;;;-4.82;89.24;98648.52;1790351;77;20989;-51
2021/01/14 20:19:03;;;;;;;24.35;13.50;;;;;;;-4.88;89.16;98657.77;1790969;78;21490;-50
2021/01/14 20:21:31;;;;;;;26.30;15.48;;;;;;;-4.93;89.23;98660.88;1789548;77;22285;-51
2021/01/14 20:24:00;;;;;;;30.30;14.70;;;;;;;-5.00;89.42;98663.11;1791330;77;20957;-53
2021/01/14 20:26:29;;;;;;;33.67;16.45;;;;;;;-5.02;89.77;98659.60;1789791;77;21042;-59
2021/01/14 20:28:57;;;;;;;30.10;15.43;;;;;;;-5.00;90.17;98653.91;1793804;77;21119;-56
2021/01/14 20:31:26;;;;;;;31.37;16.10;;;;;;;-4.95;90.41;98658.70;1792250;77;21575;-55
2021/01/14 20:33:54;;;;;;;27.55;15.50;;;;;;;-4.96;90.55;98651.67;1791786;77;21192;-57
2021/01/14 20:36:22;;;;;;;31.30;15.00;;;;;;;-4.95;90.53;98655.17;1790985;77;21140;-56
2021/01/14 20:38:50;;;;;;;25.02;13.88;;;;;;;-4.99;90.84;98646.45;1794302;77;21166;-56
2021/01/14 20:41:18;;;;;;;27.07;14.38;;;;;;;-5.05;90.72;98645.19;1794246;77;21199;-55